TimeMST,TemperatureF,Dew PointF,Humidity,Sea Level PressureIn,VisibilityMPH,Wind Direction,Wind SpeedMPH,Gust SpeedMPH,PrecipitationIn,Events,Conditions,WindDirDegrees,DateUTC
12:58 AM,59.9,28.8,31,29.83,10.0,SSE,3.5,-,N/A,,Overcast,150,2013-03-08 07:58:00
1:58 AM,58.5,30.9,35,29.83,10.0,SSE,4.6,-,N/A,,Overcast,160,2013-03-08 08:58:00
2:58 AM,57.7,30.2,35,29.81,10.0,SSE,4.6,-,N/A,,Mostly Cloudy,150,2013-03-08 09:58:00
3:40 AM,59.0,32.0,36,29.89,10.0,SSW,4.6,-,N/A,Rain,Light Rain,210,2013-03-08 10:40:00
3:51 AM,59.0,32.0,36,29.87,10.0,SE,5.8,-,N/A,,Mostly Cloudy,140,2013-03-08 10:51:00
3:58 AM,58.5,32.7,38,29.78,10.0,SSE,5.8,-,0.00,,Mostly Cloudy,160,2013-03-08 10:58:00
4:58 AM,56.7,32.5,40,29.78,10.0,SSE,2.3,-,N/A,,Mostly Cloudy,150,2013-03-08 11:58:00
5:58 AM,61.2,35.2,38,29.79,10.0,SSW,12.7,19.6,N/A,,Mostly Cloudy,200,2013-03-08 12:58:00
6:58 AM,60.8,36.5,40,29.80,10.0,South,9.2,-,N/A,,Scattered Clouds,180,2013-03-08 13:58:00
7:58 AM,57.7,40.8,53,29.83,10.0,South,13.8,-,N/A,,Partly Cloudy,180,2013-03-08 14:58:00
8:58 AM,60.6,39.7,46,29.82,10.0,SSE,16.1,-,N/A,,Clear,150,2013-03-08 15:58:00
9:47 AM,64.4,39.2,40,29.88,10.0,SSW,18.4,24.2,N/A,,Partly Cloudy,210,2013-03-08 16:47:00
9:58 AM,64.9,38.8,38,29.81,10.0,SSW,17.3,25.3,N/A,,Partly Cloudy,210,2013-03-08 16:58:00
10:13 AM,62.6,39.2,42,29.89,10.0,South,20.7,25.3,N/A,Rain,Light Rain,190,2013-03-08 17:13:00
10:34 AM,59.0,44.6,59,29.88,10.0,SSW,16.1,-,N/A,,Partly Cloudy,200,2013-03-08 17:34:00
10:58 AM,62.2,43.0,49,29.79,10.0,SSW,17.3,-,0.00,,Clear,210,2013-03-08 17:58:00
11:58 AM,63.1,41.5,45,29.79,10.0,SSW,24.2,35.7,N/A,,Clear,200,2013-03-08 18:58:00
12:58 PM,65.1,37.6,36,29.75,10.0,SW,25.3,34.5,N/A,,Clear,220,2013-03-08 19:58:00
1:18 PM,62.6,37.4,39,29.82,10.0,WSW,21.9,33.4,N/A,Rain,Light Rain,240,2013-03-08 20:18:00
1:37 PM,59.0,44.6,59,29.81,10.0,WSW,18.4,25.3,N/A,,Partly Cloudy,250,2013-03-08 20:37:00
1:58 PM,62.8,41.4,45,29.73,10.0,SW,27.6,33.4,0.01,,Clear,220,2013-03-08 20:58:00
2:37 PM,64.4,35.6,34,29.80,10.0,WSW,25.3,35.7,N/A,,Partly Cloudy,240,2013-03-08 21:37:00
2:58 PM,60.1,42.3,52,29.74,10.0,WSW,28.8,40.3,N/A,,Partly Cloudy,250,2013-03-08 21:58:00
3:16 PM,59.0,41.0,51,29.82,10.0,WSW,29.9,43.7,N/A,Rain,Light Rain,250,2013-03-08 22:16:00
3:27 PM,57.2,39.2,51,29.84,10.0,SW,24.2,39.1,N/A,,Clear,230,2013-03-08 22:27:00
3:37 PM,57.2,39.2,51,29.84,10.0,SW,26.5,41.4,N/A,Rain,Light Rain,230,2013-03-08 22:37:00
3:45 PM,55.4,39.2,54,29.84,10.0,SW,27.6,41.4,N/A,,Partly Cloudy,230,2013-03-08 22:45:00
3:58 PM,56.5,38.1,50,29.78,10.0,WSW,20.7,35.7,0.00,,Partly Cloudy,240,2013-03-08 22:58:00
4:58 PM,58.5,36.7,44,29.80,10.0,SW,19.6,29.9,N/A,,Partly Cloudy,230,2013-03-08 23:58:00
5:29 PM,55.4,35.6,47,29.86,10.0,WSW,29.9,35.7,N/A,Rain,Light Rain,240,2013-03-09 00:29:00
5:40 PM,53.6,37.4,54,29.88,10.0,SW,26.5,34.5,N/A,,Clear,230,2013-03-09 00:40:00
5:58 PM,53.6,34.5,48,29.82,10.0,SW,18.4,32.2,0.00,,Clear,230,2013-03-09 00:58:00
6:58 PM,51.6,35.1,53,29.85,10.0,SSW,18.4,26.5,N/A,,Scattered Clouds,200,2013-03-09 01:58:00
7:58 PM,50.5,36.9,59,29.87,10.0,SSW,12.7,-,N/A,,Clear,210,2013-03-09 02:58:00
8:58 PM,48.9,32.9,54,29.90,10.0,WSW,12.7,-,N/A,,Mostly Cloudy,240,2013-03-09 03:58:00
9:58 PM,48.0,33.1,56,29.92,10.0,West,11.5,-,N/A,,Scattered Clouds,260,2013-03-09 04:58:00
10:58 PM,46.8,32.0,57,29.93,10.0,NNW,4.6,-,N/A,,Clear,340,2013-03-09 05:58:00
11:58 PM,45.7,31.6,58,29.94,10.0,SW,6.9,-,N/A,,Clear,230,2013-03-09 06:58:00